Time;durP1;ratioP1;P1;durP2;ratioP2;P2;SDS_P1;SDS_P2;PMS_P1;PMS_P2;Temp;Humidity;BMP_temperature;BMP_pressure;BME280_temperature;BME280_humidity;BME280_pressure;Samples;Min_cycle;Max_cycle;Signal;HPM_P1;HPM_P2
2023/09/04 00:01:36;;;;;;;23.33;18.48;;;;;;;14.29;100.00;102626.13;5070603;28;20509;-65
2023/09/04 00:04:03;;;;;;;23.70;18.52;;;;;;;14.22;100.00;102625.59;5070561;28;20028;-66
2023/09/04 00:06:32;;;;;;;23.23;18.15;;;;;;;14.22;100.00;102624.78;5070817;28;20037;-66
2023/09/04 00:08:59;;;;;;;24.25;17.33;;;;;;;14.15;100.00;102620.38;5062356;28;20506;-66
2023/09/04 00:11:26;;;;;;;23.63;18.10;;;;;;;14.19;100.00;102620.63;5062172;28;20025;-67
2023/09/04 00:13:52;;;;;;;25.45;18.25;;;;;;;14.21;100.00;102618.41;5074243;28;20059;-65
2023/09/04 00:16:17;;;;;;;23.05;17.85;;;;;;;14.15;100.00;102620.38;5074277;28;20025;-66
2023/09/04 00:18:42;;;;;;;23.67;17.70;;;;;;;14.11;100.00;102613.72;5074374;28;20036;-66
2023/09/04 00:21:08;;;;;;;22.17;18.38;;;;;;;14.10;100.00;102605.66;5072826;28;20039;-66
2023/09/04 00:23:33;;;;;;;22.60;17.83;;;;;;;14.07;100.00;102612.63;5074283;28;20028;-67
2023/09/04 00:25:59;;;;;;;23.08;18.63;;;;;;;14.01;100.00;102614.63;5066654;28;20046;-67
2023/09/04 00:28:24;;;;;;;22.77;18.75;;;;;;;13.95;100.00;102612.94;5063129;28;20737;-66
2023/09/04 00:30:50;;;;;;;23.50;18.65;;;;;;;13.88;100.00;102609.66;5054054;28;20128;-66
2023/09/04 00:33:15;;;;;;;23.58;18.27;;;;;;;13.80;100.00;102615.81;5054274;28;20021;-66
2023/09/04 00:35:40;;;;;;;22.48;18.17;;;;;;;13.78;100.00;102616.13;5054035;28;20041;-66
2023/09/04 00:38:05;;;;;;;23.30;18.88;;;;;;;13.72;100.00;102614.44;5054081;28;20196;-66
2023/09/04 00:40:31;;;;;;;22.95;18.40;;;;;;;13.72;100.00;102609.75;5054003;28;20046;-67
2023/09/04 00:42:56;;;;;;;22.13;18.20;;;;;;;13.74;100.00;102617.78;5054088;28;20025;-66
2023/09/04 00:45:21;;;;;;;22.63;17.95;;;;;;;13.73;100.00;102616.13;5054252;28;20029;-66
2023/09/04 00:47:47;;;;;;;23.90;19.00;;;;;;;13.76;100.00;102623.06;5058392;28;20108;-65
2023/09/04 00:50:21;;;;;;;22.60;18.02;;;;;;;13.74;100.00;102620.56;5073976;28;20021;-65
2023/09/04 00:52:48;;;;;;;24.33;19.02;;;;;;;13.70;100.00;102619.47;5074148;28;20040;-66
2023/09/04 00:55:14;;;;;;;22.52;18.90;;;;;;;13.67;100.00;102615.31;5070007;28;20091;-66
2023/09/04 00:57:42;;;;;;;22.00;18.20;;;;;;;13.64;100.00;102617.81;5062414;28;20032;-65
2023/09/04 01:00:10;;;;;;;23.45;18.63;;;;;;;13.58;100.00;102614.22;5073663;28;20517;-66
2023/09/04 01:02:37;;;;;;;24.73;19.73;;;;;;;13.51;100.00;102620.06;5071982;28;20028;-67
2023/09/04 01:05:03;;;;;;;23.08;18.40;;;;;;;13.50;100.00;102617.59;5073522;28;20028;-67
2023/09/04 01:07:29;;;;;;;23.48;18.20;;;;;;;13.44;100.00;102622.34;5073533;28;20079;-67
2023/09/04 01:09:55;;;;;;;23.73;18.55;;;;;;;13.37;100.00;102611.47;5073430;28;20415;-66
2023/09/04 01:12:32;;;;;;;24.50;18.92;;;;;;;13.36;100.00;102612.63;5065891;28;20047;-67
2023/09/04 01:14:59;;;;;;;22.85;18.77;;;;;;;13.36;100.00;102620.09;5053487;28;20032;-67
2023/09/04 01:17:25;;;;;;;23.05;19.15;;;;;;;13.39;100.00;102617.63;5053264;28;20128;-67
2023/09/04 01:19:50;;;;;;;23.95;19.77;;;;;;;13.37;100.00;102616.22;5053346;28;20493;-67
2023/09/04 01:22:16;;;;;;;24.83;19.77;;;;;;;13.37;100.00;102607.88;5053148;28;20116;-67
2023/09/04 01:24:42;;;;;;;24.00;19.88;;;;;;;13.37;100.00;102616.22;5052797;28;20028;-66
2023/09/04 01:27:31;;;;;;;24.00;19.25;;;;;;;13.38;100.00;102615.91;5056771;28;20116;-67
2023/09/04 01:30:07;;;;;;;23.50;18.73;;;;;;;13.31;100.00;102615.38;5053248;28;20089;-66
2023/09/04 01:32:39;;;;;;;24.17;18.65;;;;;;;13.35;100.00;102607.31;5053123;28;20029;-65
2023/09/04 01:35:06;;;;;;;24.83;19.17;;;;;;;13.32;100.00;102614.28;5052974;28;20036;-66
2023/09/04 01:37:32;;;;;;;23.80;19.15;;;;;;;13.29;100.00;102609.28;5054289;28;20066;-65
2023/09/04 01:39:58;;;;;;;24.23;18.85;;;;;;;13.22;100.00;102612.38;5064058;28;20431;-65
2023/09/04 01:42:23;;;;;;;22.50;18.40;;;;;;;13.18;100.00;102608.47;5052789;28;20087;-66
2023/09/04 01:44:48;;;;;;;23.20;18.85;;;;;;;13.13;100.00;102604.88;5052829;28;20037;-65
2023/09/04 01:47:14;;;;;;;23.17;19.17;;;;;;;13.07;100.00;102604.88;5052610;28;20036;-66
2023/09/04 01:49:39;;;;;;;23.75;19.40;;;;;;;13.03;100.00;102601.00;5052624;28;20041;-66
2023/09/04 01:52:05;;;;;;;24.05;19.90;;;;;;;13.00;100.00;102590.44;5052597;28;20049;-66
2023/09/04 01:54:30;;;;;;;24.13;19.15;;;;;;;12.97;100.00;102591.00;5052717;28;20477;-68
2023/09/04 01:56:56;;;;;;;23.75;18.95;;;;;;;12.98;100.00;102600.16;5052598;28;20368;-67
2023/09/04 01:59:21;;;;;;;24.50;19.63;;;;;;;12.92;100.00;102600.19;5052523;28;20029;-67
2023/09/04 02:01:46;;;;;;;24.23;19.67;;;;;;;12.85;100.00;102602.38;5052489;28;20492;-67
2023/09/04 02:04:12;;;;;;;24.92;19.38;;;;;;;12.82;100.00;102602.13;5052564;28;20104;-67
2023/09/04 02:06:37;;;;;;;24.40;19.27;;;;;;;12.75;100.00;102603.22;5052490;28;20370;-67
2023/09/04 02:09:04;;;;;;;25.15;19.63;;;;;;;12.73;100.00;102605.44;5057888;28;20041;-67
2023/09/04 02:11:29;;;;;;;23.88;19.17;;;;;;;12.71;100.00;102601.28;5067449;28;20051;-67
2023/09/04 02:13:55;;;;;;;24.33;19.85;;;;;;;12.67;100.00;102602.94;5072316;28;20047;-67
2023/09/04 02:16:22;;;;;;;25.13;18.63;;;;;;;12.63;100.00;102597.97;5072225;28;20024;-67
2023/09/04 02:18:47;;;;;;;23.10;19.13;;;;;;;12.65;100.00;102592.13;5072593;28;20029;-67
2023/09/04 02:21:13;;;;;;;22.98;18.88;;;;;;;12.59;100.00;102588.50;5072526;28;20371;-67
2023/09/04 02:23:38;;;;;;;23.17;19.42;;;;;;;12.58;100.00;102584.06;5072038;28;20487;-67
2023/09/04 02:26:03;;;;;;;24.17;19.65;;;;;;;12.55;100.00;102583.78;5065660;28;20059;-67
2023/09/04 02:28:30;;;;;;;24.50;19.77;;;;;;;12.50;100.00;102589.34;5060725;28;20352;-68
2023/09/04 02:30:55;;;;;;;24.55;19.45;;;;;;;12.43;100.00;102595.16;5052088;28;20060;-67
2023/09/04 02:33:21;;;;;;;24.48;19.35;;;;;;;12.37;100.00;102587.97;5051939;28;20016;-67
2023/09/04 02:35:46;;;;;;;24.67;19.25;;;;;;;12.32;100.00;102594.34;5051242;28;20043;-67
2023/09/04 02:38:11;;;;;;;25.73;20.13;;;;;;;12.25;100.00;102591.81;5051854;28;20029;-67
2023/09/04 02:40:36;;;;;;;24.75;19.90;;;;;;;12.24;100.00;102592.06;5057774;28;20028;-67
2023/09/04 02:43:02;;;;;;;25.02;20.15;;;;;;;12.23;100.00;102594.03;5071756;28;20036;-67
2023/09/04 02:45:27;;;;;;;23.27;19.48;;;;;;;12.23;100.00;102587.66;5071619;28;20368;-65
2023/09/04 02:47:53;;;;;;;24.08;19.80;;;;;;;12.20;100.00;102583.47;5065210;28;20044;-66
2023/09/04 02:50:18;;;;;;;24.42;19.48;;;;;;;12.20;100.00;102589.03;5052607;28;20025;-66
2023/09/04 02:52:43;;;;;;;24.90;20.23;;;;;;;12.19;100.00;102583.75;5049978;28;20040;-65
2023/09/04 02:55:09;;;;;;;23.75;19.58;;;;;;;12.14;100.00;102585.41;5051575;28;20025;-66
2023/09/04 02:57:34;;;;;;;25.30;19.95;;;;;;;12.09;100.00;102582.63;5057882;28;20492;-65
2023/09/04 03:00:05;;;;;;;24.23;20.50;;;;;;;12.06;100.00;102585.13;5069015;28;20372;-65
2023/09/04 03:02:31;;;;;;;25.08;20.90;;;;;;;12.05;100.00;102578.72;5071226;28;20109;-66
2023/09/04 03:04:56;;;;;;;25.45;19.98;;;;;;;12.02;100.00;102584.84;5071331;28;20067;-67
2023/09/04 03:07:26;;;;;;;25.60;20.77;;;;;;;11.98;100.00;102580.94;5071136;28;20109;-67
2023/09/04 03:09:58;;;;;;;25.15;20.52;;;;;;;11.94;100.00;102583.38;5071120;28;20020;-67
2023/09/04 03:12:29;;;;;;;27.00;21.25;;;;;;;11.93;100.00;102583.66;5071164;28;20028;-67
2023/09/04 03:15:00;;;;;;;25.70;20.23;;;;;;;11.93;100.00;102576.16;5071105;28;20116;-66
2023/09/04 03:17:27;;;;;;;25.50;20.30;;;;;;;11.93;100.00;102581.72;5069723;28;20439;-66
2023/09/04 03:19:53;;;;;;;26.05;21.25;;;;;;;11.93;100.00;102572.56;5071295;28;20104;-67
2023/09/04 03:22:20;;;;;;;26.02;20.95;;;;;;;11.89;100.00;102574.22;5071145;28;20036;-67
2023/09/04 03:24:46;;;;;;;26.63;22.33;;;;;;;11.90;100.00;102564.78;5071141;28;20444;-67
2023/09/04 03:27:11;;;;;;;26.75;21.27;;;;;;;11.88;100.00;102558.69;5062850;28;20040;-66
2023/09/04 03:29:36;;;;;;;25.58;21.73;;;;;;;11.89;100.00;102558.44;5056690;28;20045;-66
2023/09/04 03:32:02;;;;;;;27.75;22.88;;;;;;;11.90;100.00;102546.22;5050999;28;20094;-66
2023/09/04 03:34:29;;;;;;;27.38;22.75;;;;;;;11.91;100.00;102553.41;5051062;28;20480;-66
2023/09/04 03:36:54;;;;;;;28.95;22.83;;;;;;;11.94;100.00;102550.09;5051261;28;20075;-66
2023/09/04 03:39:21;;;;;;;28.77;23.35;;;;;;;11.98;100.00;102550.41;5051035;28;20033;-66
2023/09/04 03:41:46;;;;;;;27.23;22.65;;;;;;;12.01;100.00;102552.66;5051059;28;20033;-66
2023/09/04 03:44:12;;;;;;;27.65;23.10;;;;;;;12.01;100.00;102547.09;5050927;28;20385;-67
2023/09/04 03:46:37;;;;;;;28.02;22.63;;;;;;;12.00;100.00;102551.00;5052658;28;20024;-66
2023/09/04 03:49:02;;;;;;;27.98;23.80;;;;;;;12.01;100.00;102539.59;5055054;28;20107;-67
2023/09/04 03:51:27;;;;;;;28.50;23.60;;;;;;;12.00;100.00;102539.91;5054695;28;20024;-66
2023/09/04 03:53:53;;;;;;;27.65;22.67;;;;;;;12.00;100.00;102539.91;5054897;28;20029;-67
2023/09/04 03:56:18;;;;;;;29.63;24.10;;;;;;;12.02;100.00;102540.47;5056679;28;20141;-67
2023/09/04 03:58:44;;;;;;;27.48;22.73;;;;;;;12.02;100.00;102530.19;5059300;28;20032;-67
2023/09/04 04:01:09;;;;;;;26.25;22.60;;;;;;;12.07;100.00;102545.19;5054856;28;20059;-67
2023/09/04 04:03:34;;;;;;;27.58;22.92;;;;;;;12.06;100.00;102543.50;5054322;28;20476;-67
2023/09/04 04:06:09;;;;;;;28.25;23.58;;;;;;;12.06;100.00;102541.56;5053289;28;20055;-66
2023/09/04 04:08:35;;;;;;;27.75;23.60;;;;;;;12.08;100.00;102532.97;5054814;28;20049;-66
2023/09/04 04:11:01;;;;;;;29.35;23.27;;;;;;;12.08;100.00;102538.53;5054529;28;20021;-66
2023/09/04 04:13:26;;;;;;;28.50;23.30;;;;;;;12.08;100.00;102535.75;5054569;28;20017;-66
2023/09/04 04:15:56;;;;;;;27.48;22.88;;;;;;;12.02;100.00;102519.09;5054466;28;20028;-66
2023/09/04 04:18:22;;;;;;;27.20;22.95;;;;;;;12.05;100.00;102526.00;5054485;28;20130;-67
2023/09/04 04:20:47;;;;;;;28.92;23.67;;;;;;;12.06;100.00;102529.63;5058847;28;20554;-66
2023/09/04 04:23:13;;;;;;;26.90;23.52;;;;;;;12.03;100.00;102525.47;5063059;28;20481;-67
2023/09/04 04:25:40;;;;;;;28.27;24.35;;;;;;;12.01;100.00;102531.28;5054395;28;20163;-67
2023/09/04 04:28:05;;;;;;;28.60;23.63;;;;;;;11.98;100.00;102522.69;5054036;28;20032;-67
2023/09/04 04:30:31;;;;;;;27.27;23.58;;;;;;;11.99;100.00;102527.13;5054051;28;20420;-67
2023/09/04 04:32:56;;;;;;;29.17;24.65;;;;;;;11.97;100.00;102532.06;5054221;28;20094;-66
2023/09/04 04:35:22;;;;;;;28.20;24.75;;;;;;;11.95;100.00;102531.53;5054100;28;20035;-67
2023/09/04 04:37:47;;;;;;;29.42;24.77;;;;;;;11.91;100.00;102527.63;5054087;28;20049;-66
2023/09/04 04:40:19;;;;;;;28.42;23.73;;;;;;;11.90;100.00;102518.50;5053819;28;20068;-66
2023/09/04 04:42:45;;;;;;;29.40;23.70;;;;;;;11.91;100.00;102530.41;5053833;28;20041;-66
2023/09/04 04:45:10;;;;;;;28.20;23.83;;;;;;;11.88;100.00;102531.81;5053887;28;20052;-66
2023/09/04 04:47:35;;;;;;;29.38;23.65;;;;;;;11.87;100.00;102538.44;5059165;28;20028;-66
2023/09/04 04:50:01;;;;;;;28.40;23.83;;;;;;;11.86;100.00;102539.56;5066975;28;20085;-67
2023/09/04 04:52:26;;;;;;;29.80;24.33;;;;;;;11.84;100.00;102537.06;5061854;28;20027;-67
2023/09/04 04:54:52;;;;;;;28.80;24.23;;;;;;;11.84;100.00;102537.06;5073699;28;20036;-67
2023/09/04 04:57:17;;;;;;;29.33;23.92;;;;;;;11.83;100.00;102532.63;5073553;28;20071;-67
2023/09/04 04:59:42;;;;;;;27.77;23.15;;;;;;;11.84;100.00;102530.66;5073358;28;20021;-67
2023/09/04 05:02:09;;;;;;;27.55;23.05;;;;;;;11.84;100.00;102525.13;5072114;28;20055;-67
2023/09/04 05:04:35;;;;;;;29.50;24.52;;;;;;;11.86;100.00;102523.72;5073593;28;20055;-67
2023/09/04 05:07:01;;;;;;;28.45;22.30;;;;;;;11.88;100.00;102520.72;5073831;28;20559;-66
2023/09/04 05:09:26;;;;;;;29.02;23.58;;;;;;;11.90;100.00;102514.88;5069582;28;20112;-66
2023/09/04 05:11:51;;;;;;;28.17;23.23;;;;;;;11.92;100.00;102510.72;5061598;28;20029;-67
2023/09/04 05:14:17;;;;;;;28.60;23.33;;;;;;;11.96;100.00;102513.78;5053352;28;20054;-66
2023/09/04 05:16:42;;;;;;;28.38;22.65;;;;;;;11.96;100.00;102511.00;5052003;28;20122;-66
2023/09/04 05:19:07;;;;;;;29.58;23.15;;;;;;;11.98;100.00;102509.66;5053365;28;20028;-66
2023/09/04 05:21:32;;;;;;;30.88;23.67;;;;;;;12.02;100.00;102516.31;5059167;28;20056;-67
2023/09/04 05:23:58;;;;;;;30.08;23.40;;;;;;;12.06;100.00;102522.13;5068134;28;20043;-66
2023/09/04 05:26:23;;;;;;;28.90;23.05;;;;;;;12.10;100.00;102517.72;5066810;28;20032;-66
2023/09/04 05:28:48;;;;;;;31.17;23.02;;;;;;;12.15;100.00;102526.03;5061756;28;20471;-68
2023/09/04 05:31:14;;;;;;;28.10;23.42;;;;;;;12.20;100.00;102527.16;5053068;28;20513;-67
2023/09/04 05:33:39;;;;;;;28.13;22.58;;;;;;;12.25;100.00;102521.59;5053097;28;20024;-67
2023/09/04 05:36:05;;;;;;;29.73;23.42;;;;;;;12.27;100.00;102520.25;5052999;28;20021;-66
2023/09/04 05:38:31;;;;;;;29.80;22.92;;;;;;;12.35;100.00;102518.00;5053173;28;20476;-67
2023/09/04 05:40:58;;;;;;;28.85;23.25;;;;;;;12.39;100.00;102513.56;5052971;28;20039;-67
2023/09/04 05:43:23;;;;;;;29.73;23.60;;;;;;;12.43;100.00;102521.06;5053190;28;20082;-67
2023/09/04 05:45:49;;;;;;;29.98;24.23;;;;;;;12.48;100.00;102517.44;5052879;28;20123;-67
2023/09/04 05:48:15;;;;;;;29.75;23.35;;;;;;;12.52;100.00;102512.16;5053094;28;20100;-67
2023/09/04 05:50:40;;;;;;;27.88;22.83;;;;;;;12.60;100.00;102515.22;5052639;28;20159;-66
2023/09/04 05:53:05;;;;;;;28.70;23.27;;;;;;;12.68;100.00;102526.88;5052515;28;20029;-67
2023/09/04 05:55:30;;;;;;;28.75;21.95;;;;;;;12.74;100.00;102528.53;5052769;28;20131;-66
2023/09/04 05:57:56;;;;;;;29.85;24.15;;;;;;;12.80;100.00;102536.56;5059340;28;20041;-66
2023/09/04 06:00:21;;;;;;;31.42;23.48;;;;;;;12.84;100.00;102536.00;5072474;28;20061;-67
2023/09/04 06:02:47;;;;;;;30.65;24.27;;;;;;;12.89;100.00;102541.59;5071990;28;20117;-66
2023/09/04 06:05:12;;;;;;;29.30;23.08;;;;;;;12.97;100.00;102538.22;5072328;28;20032;-66
2023/09/04 06:07:38;;;;;;;28.83;23.27;;;;;;;13.07;100.00;102537.34;5072267;28;20126;-66
2023/09/04 06:10:03;;;;;;;28.50;23.00;;;;;;;13.10;100.00;102542.34;5068026;28;20029;-66
2023/09/04 06:12:29;;;;;;;29.60;22.63;;;;;;;13.17;100.00;102539.28;5062390;28;20027;-66
2023/09/04 06:14:54;;;;;;;29.38;23.90;;;;;;;13.19;100.00;102537.03;5057786;28;20036;-66
2023/09/04 06:17:19;;;;;;;30.83;24.83;;;;;;;13.21;100.00;102535.66;5052488;28;20488;-64
2023/09/04 06:19:45;;;;;;;30.90;24.20;;;;;;;13.30;100.00;102549.78;5052656;28;20029;-66
2023/09/04 06:22:10;;;;;;;30.17;24.33;;;;;;;13.33;100.00;102538.13;5052234;28;20468;-65
2023/09/04 06:24:35;;;;;;;30.30;24.52;;;;;;;13.41;100.00;102536.75;5052460;28;20056;-67
2023/09/04 06:27:01;;;;;;;31.33;25.67;;;;;;;13.51;100.00;102533.06;5052367;28;20472;-66
2023/09/04 06:29:26;;;;;;;29.85;24.33;;;;;;;13.63;100.00;102525.22;5052216;28;20099;-65
2023/09/04 06:31:51;;;;;;;28.73;24.17;;;;;;;13.73;100.00;102532.69;5056213;28;20113;-65
2023/09/04 06:34:17;;;;;;;30.00;24.50;;;;;;;13.82;100.00;102536.53;5052127;28;20040;-65
2023/09/04 06:36:42;;;;;;;29.02;24.10;;;;;;;13.86;100.00;102526.50;5052048;28;20039;-64
2023/09/04 06:39:07;;;;;;;28.30;23.95;;;;;;;13.89;100.00;102530.66;5051830;28;20400;-65
2023/09/04 06:41:33;;;;;;;29.50;24.42;;;;;;;13.94;100.00;102525.03;5051710;28;20028;-64
2023/09/04 06:43:59;;;;;;;28.50;24.20;;;;;;;14.00;100.00;102526.69;5065428;28;20032;-65
2023/09/04 06:46:25;;;;;;;28.13;23.90;;;;;;;14.09;100.00;102528.84;5069455;28;20028;-65
2023/09/04 06:48:50;;;;;;;30.02;23.33;;;;;;;14.20;100.00;102531.25;5067274;28;20035;-65
2023/09/04 06:51:16;;;;;;;29.05;23.13;;;;;;;14.29;100.00;102531.50;5069591;28;20117;-65
2023/09/04 06:53:42;;;;;;;28.42;23.02;;;;;;;14.37;100.00;102518.88;5066666;28;20035;-65
2023/09/04 06:56:08;;;;;;;26.83;22.15;;;;;;;14.48;100.00;102525.22;5063100;28;20062;-65
2023/09/04 06:58:33;;;;;;;26.92;22.70;;;;;;;14.56;100.00;102519.00;5054783;28;20824;-65
2023/09/04 07:01:02;;;;;;;27.35;22.65;;;;;;;14.66;100.00;102523.63;5049916;28;20029;-66
2023/09/04 07:03:27;;;;;;;28.20;22.77;;;;;;;14.79;100.00;102523.00;5059780;28;20637;-65
2023/09/04 07:05:53;;;;;;;27.83;22.70;;;;;;;14.88;100.00;102523.16;5059248;28;20025;-65
2023/09/04 07:08:18;;;;;;;28.08;23.52;;;;;;;14.96;100.00;102521.69;5062812;28;20547;-66
2023/09/04 07:10:44;;;;;;;27.13;21.70;;;;;;;15.08;100.00;102519.34;5058709;28;20438;-66
2023/09/04 07:13:09;;;;;;;26.65;22.02;;;;;;;15.15;100.00;102510.63;5050693;28;20100;-69
2023/09/04 07:15:34;;;;;;;28.67;23.48;;;;;;;15.26;100.00;102517.72;5057559;28;20484;-66
2023/09/04 07:18:00;;;;;;;28.23;23.58;;;;;;;15.39;100.00;102521.78;5061788;28;20028;-66
2023/09/04 07:20:28;;;;;;;25.83;21.15;;;;;;;15.47;100.00;102519.44;5065275;28;20114;-66
2023/09/04 07:22:53;;;;;;;26.02;21.73;;;;;;;15.57;100.00;102522.09;5061370;28;20028;-65
2023/09/04 07:25:18;;;;;;;25.20;21.33;;;;;;;15.68;100.00;102511.63;5061717;28;20544;-65
2023/09/04 07:27:44;;;;;;;27.95;21.83;;;;;;;15.79;100.00;102512.28;5066815;28;20439;-65
2023/09/04 07:30:10;;;;;;;25.45;21.52;;;;;;;15.90;100.00;102520.28;5056053;28;20136;-67
2023/09/04 07:32:37;;;;;;;24.65;20.88;;;;;;;16.02;100.00;102511.44;5055943;28;20056;-65
2023/09/04 07:35:03;;;;;;;26.63;21.20;;;;;;;16.14;100.00;102519.34;5060151;28;20189;-65
2023/09/04 07:37:29;;;;;;;25.65;20.38;;;;;;;16.27;100.00;102526.09;5051376;28;20028;-65
2023/09/04 07:39:54;;;;;;;27.92;22.30;;;;;;;16.38;100.00;102524.00;5049966;28;20028;-66
2023/09/04 07:42:22;;;;;;;25.95;21.27;;;;;;;16.47;100.00;102522.16;5052343;28;20033;-66
2023/09/04 07:44:47;;;;;;;25.25;20.42;;;;;;;16.58;100.00;102524.78;5060655;28;20029;-65
2023/09/04 07:47:12;;;;;;;25.27;20.48;;;;;;;16.67;100.00;102532.13;5060144;28;20039;-66
2023/09/04 07:49:38;;;;;;;26.33;20.52;;;;;;;16.75;100.00;102525.03;5059448;28;20125;-66
2023/09/04 07:52:03;;;;;;;24.58;19.90;;;;;;;16.84;100.00;102530.72;5053668;28;20467;-66
2023/09/04 07:54:29;;;;;;;25.00;20.60;;;;;;;16.94;100.00;102515.75;5049350;28;20488;-67
2023/09/04 07:56:54;;;;;;;25.10;20.10;;;;;;;17.00;100.00;102525.69;5049759;28;20033;-66
2023/09/04 07:59:19;;;;;;;24.65;19.77;;;;;;;17.06;100.00;102515.25;5048255;28;20032;-66
2023/09/04 08:01:45;;;;;;;24.35;19.85;;;;;;;17.13;100.00;102522.09;5047678;28;20017;-67
2023/09/04 08:04:13;;;;;;;24.50;19.85;;;;;;;17.22;100.00;102512.97;5049632;28;20641;-67
2023/09/04 08:06:38;;;;;;;24.48;19.40;;;;;;;17.30;100.00;102517.84;5049805;28;20087;-67
2023/09/04 08:09:04;;;;;;;25.80;20.00;;;;;;;17.37;100.00;102514.63;5049676;28;20033;-67
2023/09/04 08:11:29;;;;;;;24.45;19.10;;;;;;;17.45;100.00;102513.88;5048365;28;20078;-66
2023/09/04 08:13:54;;;;;;;24.10;19.23;;;;;;;17.51;100.00;102515.44;5049568;28;20079;-66
2023/09/04 08:16:20;;;;;;;27.05;20.70;;;;;;;17.60;100.00;102510.75;5049587;28;20106;-66
2023/09/04 08:18:45;;;;;;;24.55;19.50;;;;;;;17.70;100.00;102520.06;5049738;28;20087;-66
2023/09/04 08:21:10;;;;;;;24.20;19.00;;;;;;;17.78;100.00;102519.31;5049357;28;20560;-67
2023/09/04 08:23:36;;;;;;;23.80;18.92;;;;;;;17.85;100.00;102505.72;5049740;28;20033;-66
2023/09/04 08:26:03;;;;;;;24.33;19.33;;;;;;;17.95;100.00;102518.66;5049393;28;20083;-67
2023/09/04 08:28:28;;;;;;;23.42;18.98;;;;;;;18.04;100.00;102522.38;5049287;28;20120;-66
2023/09/04 08:30:54;;;;;;;24.80;19.30;;;;;;;18.16;100.00;102515.38;5049566;28;20151;-66
2023/09/04 08:33:20;;;;;;;24.05;18.70;;;;;;;18.23;100.00;102510.16;5050617;28;20056;-66
2023/09/04 08:35:45;;;;;;;24.20;19.13;;;;;;;18.29;100.00;102508.88;5058026;28;20043;-66
2023/09/04 08:38:10;;;;;;;24.27;18.27;;;;;;;18.37;100.00;102504.50;5061236;28;20033;-67
2023/09/04 08:40:40;;;;;;;23.60;18.25;;;;;;;18.44;100.00;102506.84;5061854;28;20039;-66
2023/09/04 08:43:07;;;;;;;23.55;18.05;;;;;;;18.52;100.00;102503.28;5058174;28;20037;-67
2023/09/04 08:45:35;;;;;;;22.98;17.63;;;;;;;18.65;100.00;102507.13;5055988;28;20809;-67
2023/09/04 08:48:02;;;;;;;23.73;17.30;;;;;;;18.74;99.29;102504.38;5057021;28;20037;-68
2023/09/04 08:50:28;;;;;;;21.70;16.95;;;;;;;18.85;100.00;102500.13;5059306;28;20032;-66
2023/09/04 08:52:53;;;;;;;23.90;17.60;;;;;;;18.94;99.08;102515.03;5064720;28;20055;-66
2023/09/04 08:55:20;;;;;;;23.98;17.55;;;;;;;19.02;97.29;102511.47;5053192;28;20033;-66
2023/09/04 08:57:45;;;;;;;23.70;16.48;;;;;;;19.11;98.22;102507.88;5058559;28;20471;-67
2023/09/04 09:00:11;;;;;;;22.63;17.58;;;;;;;19.26;99.67;102510.22;5068683;28;20040;-66
2023/09/04 09:02:38;;;;;;;23.00;17.98;;;;;;;19.35;99.47;102509.41;5066808;28;20028;-66
2023/09/04 09:05:04;;;;;;;22.02;17.23;;;;;;;19.44;97.37;102508.31;5064404;28;20040;-66
2023/09/04 09:07:30;;;;;;;22.77;17.85;;;;;;;19.55;97.68;102506.00;5063177;28;20447;-68
2023/09/04 09:10:02;;;;;;;22.10;17.10;;;;;;;19.67;97.48;102507.34;5067613;28;20036;-67
2023/09/04 09:12:27;;;;;;;23.00;16.88;;;;;;;19.69;95.64;102511.47;5066006;28;20044;-67
2023/09/04 09:14:53;;;;;;;21.48;16.38;;;;;;;19.72;93.30;102508.00;5066643;28;20036;-67
2023/09/04 09:17:18;;;;;;;21.25;15.77;;;;;;;19.84;94.08;102495.31;5057485;28;20548;-67
2023/09/04 09:19:44;;;;;;;21.70;15.65;;;;;;;19.93;93.11;102490.56;5051198;28;20029;-67
2023/09/04 09:22:13;;;;;;;23.15;17.02;;;;;;;20.02;90.60;102497.00;5058292;28;20093;-67
2023/09/04 09:24:59;;;;;;;22.90;16.17;;;;;;;20.17;90.79;102501.25;5053091;28;20040;-67
2023/09/04 09:27:27;;;;;;;22.15;16.20;;;;;;;20.29;90.21;102492.16;5059587;28;20473;-66
2023/09/04 09:29:55;;;;;;;21.25;15.63;;;;;;;20.39;89.52;102494.63;5052191;28;20072;-66
2023/09/04 09:32:20;;;;;;;21.08;15.52;;;;;;;20.52;90.35;102486.31;5060274;28;20025;-66
2023/09/04 09:34:50;;;;;;;20.52;14.80;;;;;;;20.67;89.21;102499.84;5052522;28;20071;-67
2023/09/04 09:37:17;;;;;;;22.80;15.15;;;;;;;20.76;87.37;102499.03;5053564;28;20044;-67
2023/09/04 09:39:43;;;;;;;20.92;14.80;;;;;;;20.90;88.03;102502.44;5072784;28;20037;-67
2023/09/04 09:42:08;;;;;;;21.98;15.50;;;;;;;21.03;87.37;102492.09;5060000;28;20072;-67
2023/09/04 09:44:33;;;;;;;21.02;16.02;;;;;;;21.19;87.24;102497.97;5069156;28;20111;-66
2023/09/04 09:46:59;;;;;;;21.52;15.23;;;;;;;21.35;86.45;102495.41;5059378;28;20039;-66
2023/09/04 09:49:25;;;;;;;20.88;14.55;;;;;;;21.42;81.86;102490.06;5061125;28;20443;-67
2023/09/04 09:51:53;;;;;;;19.85;14.27;;;;;;;21.48;81.24;102499.13;5072308;28;20036;-68
2023/09/04 09:54:39;;;;;;;19.65;13.82;;;;;;;21.58;83.88;102483.84;5064773;28;20047;-67
2023/09/04 09:57:08;;;;;;;19.98;14.23;;;;;;;21.66;82.07;102480.97;5061721;28;20029;-67
2023/09/04 09:59:35;;;;;;;19.67;13.80;;;;;;;21.80;81.67;102485.53;5065990;28;20044;-67
2023/09/04 10:02:05;;;;;;;20.23;13.85;;;;;;;21.91;80.69;102478.31;5061127;28;20039;-67
2023/09/04 10:04:32;;;;;;;20.55;14.00;;;;;;;22.00;80.75;102474.59;5070064;28;20031;-67
2023/09/04 10:07:04;;;;;;;19.33;14.15;;;;;;;22.04;78.18;102469.91;5063468;28;20032;-67
2023/09/04 10:09:36;;;;;;;19.98;13.60;;;;;;;22.10;81.29;102466.53;5051430;28;20645;-67
2023/09/04 10:12:11;;;;;;;19.43;14.17;;;;;;;22.16;81.54;102469.94;5059791;28;20096;-66
2023/09/04 10:14:41;;;;;;;20.75;13.98;;;;;;;22.21;78.06;102468.91;5052198;28;20476;-67
2023/09/04 10:17:17;;;;;;;18.70;12.75;;;;;;;22.24;76.41;102463.41;5068779;28;20028;-66
2023/09/04 10:19:46;;;;;;;18.75;13.05;;;;;;;22.28;74.37;102460.69;5070959;28;20033;-66
2023/09/04 10:22:25;;;;;;;19.10;12.88;;;;;;;22.26;76.56;102448.94;5071014;28;20474;-67
2023/09/04 10:24:59;;;;;;;20.05;13.35;;;;;;;22.41;74.72;102468.06;5069649;28;20056;-66
2023/09/04 10:27:28;;;;;;;19.95;13.23;;;;;;;22.47;74.25;102465.84;5071061;28;20046;-66
2023/09/04 10:30:04;;;;;;;19.73;12.98;;;;;;;22.56;74.95;102460.94;5070997;28;20062;-67
2023/09/04 10:32:30;;;;;;;19.40;13.48;;;;;;;22.59;73.48;102456.56;5071399;28;20036;-66
2023/09/04 10:34:56;;;;;;;18.98;13.35;;;;;;;22.61;73.46;102448.59;5070792;28;20391;-67
2023/09/04 10:37:26;;;;;;;17.85;12.25;;;;;;;22.69;73.21;102449.63;5070826;28;20086;-66
2023/09/04 10:39:53;;;;;;;19.92;13.27;;;;;;;22.79;71.13;102449.19;5062817;28;20029;-66
2023/09/04 10:42:20;;;;;;;18.70;12.30;;;;;;;22.84;68.46;102448.13;5057745;28;20025;-66
2023/09/04 10:44:53;;;;;;;17.95;11.68;;;;;;;22.97;70.55;102448.94;5053953;28;20036;-67
2023/09/04 10:47:20;;;;;;;18.90;11.77;;;;;;;23.11;69.84;102451.41;5058206;28;20039;-67
2023/09/04 10:49:45;;;;;;;19.20;12.57;;;;;;;23.10;70.06;102441.28;5059918;28;20464;-66
2023/09/04 10:52:12;;;;;;;18.98;12.68;;;;;;;23.16;70.83;102434.25;5057600;28;20033;-66
2023/09/04 10:54:38;;;;;;;19.55;12.77;;;;;;;23.13;70.66;102427.31;5066799;28;20060;-67
2023/09/04 10:57:06;;;;;;;18.98;12.50;;;;;;;23.16;70.80;102432.22;5067475;28;20028;-66
2023/09/04 10:59:55;;;;;;;19.10;12.77;;;;;;;23.24;70.75;102429.69;5060813;28;20033;-66